Main page
METAR-TAF:

METAR-TAF

Airports :

Los Alamos County Airport

Los Alamos, New Mexico, United States

latitude: 35-53N, longitude: 106-17W, elevation: 7147 ft

Current weather observation

The report was made 26 minutes ago, at 17:35 UTC
Wind 5 mph from variable directions
Temperature 73°F
Humidity 31%
Pressure 30.21 in. Hg
Visibility: 7 miles
Clear sky

METAR: KLAM 151735Z AUTO VRB04KT 7SM CLR 23/05 A3021 RMK AO2 T02250053 $

Time: 12:01 (18:01 UTC)


TAF: missing

Weather observations and forecasts of more than 4000 airports (METAR and TAF reports).

The available stations are represented by yellow and red dots on the map.

Hover mouse over dot to see the name of the station.

Then click to see weather observations and forecasts.

To change the map : click on the green buttons with a black cross to zoom in, on the green button with a dash to zoom out, or on the green arrows for adjacent maps.


METAR-TAF: